| time (UTC) | temp F | wind direction | speed knots | gust knots | rain 1hr in | rain 24hr in | rain mn in | humidity % | barometer mb |
| 20260508053039 | 46 | 232 | 1.7 | 3.5 | 0.00 | 0.00 | 0.00 | 61 | 1013.3 |
| 20260508051524 | 46 | 232 | 1.7 | 3.5 | 0.00 | 0.00 | 0.00 | 61 | 1013.3 |
| 20260508050022 | 46 | 223 | 1.7 | 3.5 | 0.00 | 0.00 | 0.00 | 61 | 1013.3 |
| 20260508044520 | 47 | 211 | 2.6 | 4.3 | 0.00 | 0.00 | 0.00 | 61 | 1013.3 |
| 20260508043018 | 47 | 266 | 1.7 | 3.5 | 0.00 | 0.00 | 0.00 | 59 | 1013.2 |
| 20260508041519 | 47 | 290 | 1.7 | 4.3 | 0.00 | 0.00 | 0.00 | 58 | 1013.0 |
| 20260508040013 | 47 | 298 | 0.9 | 3.5 | 0.00 | 0.00 | 0.00 | 59 | 1012.9 |
| 20260508034522 | 47 | 322 | 1.7 | 3.5 | 0.00 | 0.00 | 0.00 | 58 | 1012.9 |
| 20260508033022 | 47 | 360 | 0.9 | 2.6 | 0.00 | 0.00 | 0.00 | 58 | 1012.8 |
| 20260508031510 | 47 | 360 | 0.9 | 2.6 | 0.00 | 0.00 | 0.00 | 59 | 1012.8 |
| 20260508030015 | 47 | 297 | 0.9 | 4.3 | 0.00 | 0.00 | 0.00 | 61 | 1012.7 |
| 20260508024519 | 47 | 323 | 1.7 | 4.3 | 0.00 | 0.00 | 0.00 | 61 | 1012.7 |
| 20260508023011 | 48 | 314 | 0.9 | 5.2 | 0.00 | 0.00 | 0.00 | 61 | 1012.7 |
| 20260508021508 | 48 | 302 | 1.7 | 4.3 | 0.00 | 0.00 | 0.00 | 59 | 1012.5 |
| 20260508020008 | 49 | 304 | 0.9 | 6.1 | 0.00 | 0.00 | 0.00 | 58 | 1012.4 |
| 20260508014512 | 49 | 317 | 1.7 | 7.8 | 0.00 | 0.00 | 0.00 | 56 | 1012.2 |
| 20260508013007 | 50 | 309 | 2.6 | 5.2 | 0.00 | 0.00 | 0.00 | 56 | 1012.0 |
| 20260508011506 | 50 | 301 | 4.3 | 9.6 | 0.00 | 0.00 | 0.00 | 55 | 1011.9 |
| 20260508010013 | 51 | 325 | 4.3 | 9.6 | 0.00 | 0.00 | 0.00 | 54 | 1011.7 |
| 20260508004506 | 51 | 300 | 2.6 | 12.2 | 0.00 | 0.00 | 0.00 | 56 | 1011.5 |
| 20260508003005 | 52 | 304 | 2.6 | 9.6 | 0.00 | 0.00 | 0.00 | 53 | 1011.4 |
| 20260508001603 | 53 | 355 | 4.3 | 12.2 | 0.00 | 0.00 | 0.00 | 51 | 1011.2 |
| 20260508000059 | 54 | 304 | 2.6 | 12.2 | 0.00 | 0.00 | 0.00 | 50 | 1011.0 |
| 20260507234559 | 55 | 292 | 7.8 | 12.2 | 0.00 | 0.00 | 0.00 | 47 | 1010.7 |
| 20260507233058 | 56 | 309 | 2.6 | 8.7 | 0.00 | 0.00 | 0.00 | 48 | 1010.7 |
| 20260507231558 | 56 | 324 | 6.1 | 15.6 | 0.00 | 0.00 | 0.00 | 43 | 1010.4 |
| 20260507230111 | 57 | 302 | 5.2 | 15.6 | 0.00 | 0.00 | 0.00 | 44 | 1010.3 |
| 20260507224556 | 57 | 304 | 6.1 | 17.4 | 0.00 | 0.00 | 0.00 | 44 | 1010.2 |
| 20260507223202 | 58 | 296 | 9.6 | 14.8 | 0.00 | 0.00 | 0.00 | 43 | 1010.1 |
| 20260507221554 | 58 | 277 | 7.8 | 13.9 | 0.00 | 0.00 | 0.00 | 42 | 1010.0 |
| 20260507220054 | 58 | 319 | 8.7 | 16.5 | 0.00 | 0.00 | 0.00 | 44 | 1009.7 |
| 20260507214558 | 58 | 273 | 4.3 | 11.3 | 0.00 | 0.00 | 0.00 | 46 | 1009.4 |
| 20260507213121 | 57 | 311 | 7.8 | 16.5 | 0.00 | 0.00 | 0.00 | 45 | 1009.4 |
| 20260507211553 | 58 | 295 | 6.1 | 13.0 | 0.00 | 0.00 | 0.00 | 45 | 1009.3 |
| 20260507210057 | 58 | 312 | 8.7 | 13.9 | 0.00 | 0.00 | 0.00 | 43 | 1009.2 |
| 20260507204551 | 59 | 284 | 7.0 | 14.8 | 0.00 | 0.00 | 0.00 | 43 | 1009.1 |
| 20260507203051 | 58 | 293 | 4.3 | 13.9 | 0.00 | 0.00 | 0.00 | 50 | 1009.2 |
| 20260507201603 | 59 | 304 | 9.6 | 15.6 | 0.00 | 0.00 | 0.00 | 43 | 1009.1 |
| 20260507194547 | 58 | 311 | 4.3 | 11.3 | 0.00 | 0.00 | 0.00 | 46 | 1009.6 |
| 20260507193048 | 59 | 284 | 7.8 | 15.6 | 0.00 | 0.00 | 0.00 | 51 | 1009.8 |
| 20260507191542 | 57 | 294 | 4.3 | 13.0 | 0.00 | 0.00 | 0.00 | 50 | 1010.1 |
| 20260507190044 | 58 | 340 | 6.1 | 10.4 | 0.00 | 0.00 | 0.00 | 51 | 1010.0 |
| 20260507184543 | 58 | 258 | 2.6 | 13.0 | 0.00 | 0.00 | 0.00 | 50 | 1010.1 |
| 20260507183041 | 59 | 272 | 7.8 | 15.6 | 0.00 | 0.00 | 0.00 | 51 | 1010.1 |
| 20260507181539 | 59 | 211 | 4.3 | 13.0 | 0.00 | 0.00 | 0.00 | 52 | 1010.1 |
| 20260507180038 | 59 | 294 | 9.6 | 16.5 | 0.00 | 0.00 | 0.00 | 53 | 1010.3 |
| 20260507174547 | 58 | 269 | 9.6 | 14.8 | 0.00 | 0.00 | 0.00 | 55 | 1010.3 |
| 20260507173035 | 57 | 300 | 8.7 | 17.4 | 0.00 | 0.00 | 0.00 | 56 | 1010.5 |
| 20260507171527 | 54 | 275 | 7.0 | 13.9 | 0.00 | 0.00 | 0.00 | 56 | 1010.7 |
| 20260507170027 | 56 | 281 | 6.1 | 11.3 | 0.00 | 0.00 | 0.00 | 59 | 1011.0 |
| 20260507164522 | 56 | 257 | 3.5 | 11.3 | 0.00 | 0.00 | 0.00 | 61 | 1011.1 |
| 20260507163024 | 55 | 267 | 9.6 | 13.9 | 0.00 | 0.00 | 0.00 | 58 | 1011.0 |
| 20260507161524 | 55 | 303 | 7.0 | 14.8 | 0.00 | 0.00 | 0.00 | 62 | 1011.2 |
| 20260507160019 | 55 | 264 | 4.3 | 8.7 | 0.00 | 0.00 | 0.00 | 60 | 1011.3 |
| 20260507154517 | 55 | 275 | 3.5 | 11.3 | 0.00 | 0.00 | 0.00 | 65 | 1011.5 |
| 20260507153014 | 55 | 304 | 1.7 | 6.1 | 0.00 | 0.00 | 0.00 | 66 | 1011.5 |
| 20260507151512 | 54 | 309 | 2.6 | 7.8 | 0.00 | 0.00 | 0.00 | 65 | 1011.5 |
| 20260507150012 | 54 | 285 | 3.5 | 10.4 | 0.00 | 0.00 | 0.00 | 60 | 1011.6 |
| 20260507144509 | 54 | 331 | 2.6 | 6.1 | 0.00 | 0.02 | 0.00 | 63 | 1011.9 |
| 20260507143005 | 53 | 271 | 4.3 | 8.7 | 0.00 | 0.02 | 0.00 | 66 | 1012.1 |
| 20260507141501 | 54 | 323 | 1.7 | 9.6 | 0.00 | 0.02 | 0.00 | 62 | 1012.1 |
| 20260507140057 | 54 | 205 | 1.7 | 4.3 | 0.00 | 0.02 | 0.00 | 68 | 1012.5 |
| 20260507134530 | 52 | 335 | 1.7 | 4.3 | 0.00 | 0.04 | 0.00 | 65 | 1012.7 |
| 20260507133024 | 52 | 227 | 0.9 | 6.1 | 0.00 | 0.04 | 0.00 | 75 | 1012.7 |
| 20260507131526 | 51 | 215 | 3.5 | 6.1 | 0.00 | 0.04 | 0.00 | 76 | 1012.9 |
| 20260507130019 | 50 | 184 | 4.3 | 7.0 | 0.00 | 0.04 | 0.00 | 77 | 1012.8 |
| 20260507124516 | 50 | 184 | 1.7 | 4.3 | 0.00 | 0.06 | 0.00 | 79 | 1012.7 |
| 20260507123012 | 49 | 190 | 1.7 | 3.5 | 0.00 | 0.06 | 0.00 | 80 | 1012.6 |
| 20260507121508 | 47 | 146 | 1.7 | 2.6 | 0.00 | 0.06 | 0.00 | 83 | 1012.5 |
| 20260507120006 | 46 | 117 | 1.7 | 2.6 | 0.00 | 0.06 | 0.00 | 85 | 1012.5 |
| 20260507114503 | 47 | 38 | 0.0 | 0.0 | 0.00 | 0.10 | 0.00 | 86 | 1012.5 |
| 20260507113058 | 46 | 36 | 0.0 | 0.0 | 0.00 | 0.10 | 0.00 | 86 | 1012.4 |
| 20260507111554 | 45 | 36 | 0.0 | 0.0 | 0.00 | 0.10 | 0.00 | 85 | 1012.1 |
| 20260507110050 | 44 | 36 | 0.0 | 0.0 | 0.00 | 0.10 | 0.00 | 87 | 1012.1 |
| 20260507104545 | 43 | 36 | 0.0 | 0.0 | 0.00 | 0.18 | 0.00 | 88 | 1011.9 |
| 20260507103042 | 43 | 36 | 0.0 | 1.7 | 0.00 | 0.18 | 0.00 | 88 | 1012.0 |
| 20260507101545 | 43 | 36 | 0.9 | 1.7 | 0.00 | 0.18 | 0.00 | 87 | 1011.9 |
| 20260507100050 | 43 | 36 | 0.0 | 1.7 | 0.00 | 0.18 | 0.00 | 83 | 1011.9 |
| 20260507094539 | 44 | 36 | 0.0 | 0.0 | 0.00 | 0.37 | 0.00 | 81 | 1011.8 |
| 20260507093037 | 44 | 36 | 0.0 | 2.6 | 0.00 | 0.37 | 0.00 | 81 | 1011.8 |
| 20260507091535 | 45 | 36 | 1.7 | 3.5 | 0.00 | 0.37 | 0.00 | 80 | 1011.6 |
| 20260507090034 | 45 | 40 | 1.7 | 4.3 | 0.00 | 0.37 | 0.00 | 78 | 1011.6 |
| 20260507084537 | 45 | 36 | 2.6 | 5.2 | 0.00 | 0.57 | 0.00 | 81 | 1011.7 |
| 20260507083040 | 45 | 34 | 3.5 | 7.0 | 0.00 | 0.57 | 0.00 | 82 | 1011.8 |
| 20260507081528 | 45 | 19 | 2.6 | 4.3 | 0.00 | 0.57 | 0.00 | 84 | 1011.9 |
| 20260507080027 | 45 | 350 | 2.6 | 5.2 | 0.00 | 0.57 | 0.00 | 83 | 1011.8 |
| 20260507074526 | 46 | 28 | 1.7 | 4.3 | 0.00 | 0.62 | 0.00 | 83 | 1011.7 |
| 20260507073023 | 46 | 34 | 2.6 | 5.2 | 0.00 | 0.62 | 0.00 | 82 | 1011.5 |
| 20260507071520 | 46 | 10 | 2.6 | 6.1 | 0.00 | 0.62 | 0.00 | 82 | 1011.5 |
| 20260507070022 | 47 | 344 | 0.9 | 5.2 | 0.00 | 0.62 | 0.00 | 82 | 1011.5 |
| 20260507064527 | 47 | 339 | 1.7 | 3.5 | 0.00 | 0.68 | 0.00 | 83 | 1011.6 |
| 20260507063022 | 47 | 302 | 1.7 | 7.0 | 0.00 | 0.68 | 0.00 | 83 | 1011.5 |
| 20260507061514 | 47 | 331 | 1.7 | 5.2 | 0.00 | 0.68 | 0.00 | 85 | 1011.6 |
| 20260507060018 | 48 | 325 | 1.7 | 7.0 | 0.00 | 0.68 | 0.00 | 87 | 1011.6 |
| 20260507054510 | 48 | 324 | 0.0 | 0.0 | 0.00 | 0.68 | 0.00 | 87 | 1011.8 |